Time;durP1;ratioP1;P1;durP2;ratioP2;P2;SDS_P1;SDS_P2;PMS_P1;PMS_P2;Temp;Humidity;BMP_temperature;BMP_pressure;BME280_temperature;BME280_humidity;BME280_pressure;Samples;Min_cycle;Max_cycle;Signal;HPM_P1;HPM_P2
2023/07/14 00:01:24;;;;;;;;;6.00;6.00;;;;;20.89;68.04;100380.16;5015156;28;45366;-84
2023/07/14 00:03:50;;;;;;;;;6.00;5.67;;;;;20.90;68.00;100385.44;5016874;28;45519;-83
2023/07/14 00:06:17;;;;;;;;;6.00;5.33;;;;;20.82;68.44;100369.63;5014937;28;48332;-85
2023/07/14 00:08:45;;;;;;;;;5.00;5.00;;;;;20.91;67.81;100373.94;5015032;28;45493;-85
2023/07/14 00:11:19;;;;;;;;;5.00;4.00;;;;;20.97;67.40;100362.31;5016515;28;45586;-86
2023/07/14 00:13:45;;;;;;;;;5.33;5.33;;;;;21.08;67.05;100370.13;5016646;28;45383;-85
2023/07/14 00:16:17;;;;;;;;;8.33;6.33;;;;;21.03;67.79;100363.13;5015008;28;47808;-85
2023/07/14 00:18:43;;;;;;;;;7.00;5.67;;;;;20.96;67.90;100365.91;5015269;28;45472;-86
2023/07/14 00:21:19;;;;;;;;;7.00;5.00;;;;;21.00;67.43;100368.47;5016558;28;45453;-80
2023/07/14 00:23:45;;;;;;;;;6.00;5.67;;;;;21.01;67.21;100358.75;5016832;28;45450;-85
2023/07/14 00:26:21;;;;;;;;;5.33;5.33;;;;;21.02;67.53;100357.81;5016202;28;46236;-84
2023/07/14 00:28:50;;;;;;;;;6.00;5.00;;;;;21.00;67.25;100351.66;5016477;28;45494;-84
2023/07/14 00:31:19;;;;;;;;;4.00;4.00;;;;;21.08;66.83;100355.06;5016647;28;45441;-85
2023/07/14 00:33:50;;;;;;;;;5.33;5.00;;;;;21.06;67.07;100356.88;5018574;28;45259;-85
2023/07/14 00:36:17;;;;;;;;;3.67;3.67;;;;;20.99;67.51;100348.16;5018086;28;46453;-86
2023/07/14 00:38:43;;;;;;;;;6.00;5.00;;;;;20.93;67.79;100339.38;5019485;28;45504;-84
2023/07/14 00:41:18;;;;;;;;;6.00;5.00;;;;;20.90;67.60;100334.13;5019672;28;45508;-84
2023/07/14 00:43:45;;;;;;;;;7.00;6.00;;;;;20.88;68.06;100326.19;5018094;28;45400;-85
2023/07/14 00:46:28;;;;;;;;;6.33;6.00;;;;;20.92;67.39;100324.38;5019326;28;46263;-82
2023/07/14 00:48:57;;;;;;;;;5.00;5.00;;;;;20.91;67.05;100318.19;5019430;28;45366;-85
2023/07/14 00:51:25;;;;;;;;;5.67;5.33;;;;;20.88;66.61;100302.28;5019348;28;45236;-86
2023/07/14 00:53:51;;;;;;;;;6.00;6.00;;;;;20.79;67.25;100300.66;5019658;28;45430;-86
2023/07/14 00:56:32;;;;;;;;;4.33;4.33;;;;;20.80;67.28;100304.19;5019152;28;45566;-85
2023/07/14 00:58:58;;;;;;;;;6.00;5.33;;;;;20.74;67.69;100288.38;5017907;28;45559;-85
2023/07/14 01:01:25;;;;;;;;;6.00;6.00;;;;;20.75;67.23;100301.63;5019355;28;45392;-85
2023/07/14 01:03:58;;;;;;;;;5.00;5.00;;;;;20.82;67.26;100284.69;5018081;28;45429;-85
2023/07/14 01:06:42;;;;;;;;;8.00;6.00;;;;;20.80;67.24;100285.59;5018907;28;45521;-85
2023/07/14 01:09:12;;;;;;;;;6.67;6.67;;;;;20.63;67.71;100276.16;5018034;28;45282;-85
2023/07/14 01:11:43;;;;;;;;;5.67;5.67;;;;;20.71;67.75;100291.06;5018103;28;45550;-85
2023/07/14 01:14:18;;;;;;;;;2.67;2.67;;;;;20.68;67.48;100284.03;5018086;28;45583;-84
2023/07/14 01:16:46;;;;;;;;;4.67;4.33;;;;;20.59;67.86;100284.16;5018886;28;46027;-85
2023/07/14 01:19:39;;;;;;;;;4.67;4.67;;;;;20.60;67.82;100278.84;5017551;28;45436;-80
2023/07/14 01:22:25;;;;;;;;;5.67;5.67;;;;;20.51;67.46;100264.78;5018926;28;45449;-85
2023/07/14 01:25:14;;;;;;;;;5.67;5.67;;;;;20.53;67.16;100265.66;5018711;28;45472;-85
2023/07/14 01:27:40;;;;;;;;;7.00;6.00;;;;;20.39;68.47;100265.84;5018821;28;46164;-85
2023/07/14 01:30:06;;;;;;;;;5.00;5.00;;;;;20.27;68.13;100262.50;5017306;28;45460;-85
2023/07/14 01:32:49;;;;;;;;;5.67;5.00;;;;;20.13;68.67;100252.97;5018885;28;45470;-84
2023/07/14 01:35:17;;;;;;;;;6.00;6.00;;;;;20.09;68.91;100253.91;5018604;28;45538;-85
2023/07/14 01:37:44;;;;;;;;;7.00;7.00;;;;;20.10;69.21;100247.72;5018538;28;45228;-75
2023/07/14 01:40:13;;;;;;;;;7.67;7.67;;;;;20.09;69.34;100254.78;5018545;28;45466;-85
2023/07/14 01:42:42;;;;;;;;;5.00;5.00;;;;;20.09;68.96;100256.56;5018880;28;45165;-84
2023/07/14 01:45:17;;;;;;;;;7.00;7.00;;;;;20.09;68.78;100246.81;5017662;28;45461;-84
2023/07/14 01:47:45;;;;;;;;;7.00;6.67;;;;;20.10;68.60;100245.06;5018518;28;46193;-85
2023/07/14 01:50:23;;;;;;;;;5.33;5.33;;;;;20.04;68.97;100216.88;5018614;28;45241;-85
2023/07/14 01:52:56;;;;;;;;;5.67;5.67;;;;;20.16;69.08;100224.63;5018686;28;45363;-86
2023/07/14 01:55:25;;;;;;;;;6.00;6.00;;;;;20.27;68.88;100228.03;5018485;28;45524;-86
2023/07/14 01:57:55;;;;;;;;;5.33;5.33;;;;;20.25;68.17;100203.28;5016985;28;45422;-85
2023/07/14 02:00:21;;;;;;;;;7.00;6.00;;;;;20.31;67.81;100210.25;5016729;28;45306;-85
2023/07/14 02:02:49;;;;;;;;;8.33;7.67;;;;;20.25;68.13;100200.66;5018386;28;45297;-85
2023/07/14 02:05:29;;;;;;;;;8.33;7.00;;;;;20.24;68.39;100209.47;5018856;28;45437;-72
2023/07/14 02:07:57;;;;;;;;;5.67;5.33;;;;;20.17;68.33;100199.00;5018025;28;46161;-86
2023/07/14 02:10:23;;;;;;;;;5.00;5.00;;;;;20.23;67.83;100199.78;5018081;28;45320;-83
2023/07/14 02:12:49;;;;;;;;;6.67;6.33;;;;;20.26;68.13;100201.50;5018223;28;45308;-86
2023/07/14 02:15:24;;;;;;;;;6.00;6.00;;;;;20.26;67.78;100215.66;5018426;28;45336;-75
2023/07/14 02:17:50;;;;;;;;;6.00;5.33;;;;;20.27;67.88;100209.44;5017866;28;45574;-87
2023/07/14 02:20:25;;;;;;;;;4.67;4.33;;;;;20.23;68.02;100207.75;5017966;28;45288;-85
2023/07/14 02:22:54;;;;;;;;;5.00;4.67;;;;;20.11;68.06;100186.69;5017938;28;45335;-87
2023/07/14 02:25:23;;;;;;;;;5.00;5.00;;;;;20.17;67.76;100191.91;5018030;28;45528;-86
2023/07/14 02:27:48;;;;;;;;;4.67;4.67;;;;;20.26;67.88;100196.22;5017730;28;45615;-86
2023/07/14 02:30:18;;;;;;;;;5.33;5.00;;;;;20.30;67.91;100189.94;5016513;28;45249;-86
2023/07/14 02:32:49;;;;;;;;;3.33;2.67;;;;;20.30;67.63;100184.66;5017110;28;45263;-86
2023/07/14 02:35:39;;;;;;;;;5.00;5.00;;;;;20.29;67.95;100185.53;5018226;28;45492;-86
2023/07/14 02:38:16;;;;;;;;;5.00;5.00;;;;;20.32;67.89;100172.22;5017252;28;45336;-86
2023/07/14 02:40:47;;;;;;;;;5.33;4.33;;;;;20.35;67.20;100174.84;5017988;28;45511;-83
2023/07/14 02:43:17;;;;;;;;;5.67;5.33;;;;;20.39;67.29;100171.25;5017970;28;45402;-86
2023/07/14 02:45:57;;;;;;;;;7.00;6.00;;;;;20.39;67.16;100165.03;5018264;28;45307;-86
2023/07/14 02:48:44;;;;;;;;;6.67;6.00;;;;;20.32;67.58;100164.28;5016163;28;45521;-86
2023/07/14 02:51:11;;;;;;;;;5.33;5.00;;;;;20.29;67.59;100156.34;5017531;28;45438;-86
2023/07/14 02:53:37;;;;;;;;;5.00;4.67;;;;;20.11;67.99;100149.56;5017748;28;45546;-87
2023/07/14 02:56:03;;;;;;;;;5.67;5.33;;;;;20.20;68.30;100157.38;5017540;28;45553;-84
2023/07/14 02:58:30;;;;;;;;;6.00;5.00;;;;;20.21;68.01;100147.66;5017250;28;45505;-87
2023/07/14 03:00:55;;;;;;;;;6.00;6.00;;;;;20.19;67.85;100141.50;5016040;28;45225;-86
2023/07/14 03:03:21;;;;;;;;;5.00;4.33;;;;;20.19;67.77;100139.75;5017415;28;45451;-86
2023/07/14 03:05:47;;;;;;;;;5.33;5.33;;;;;20.21;67.40;100126.44;5017902;28;45510;-86
2023/07/14 03:08:16;;;;;;;;;5.00;5.00;;;;;20.20;68.35;100133.53;5015965;28;46848;-86
2023/07/14 03:10:46;;;;;;;;;5.67;5.67;;;;;20.12;68.01;100116.00;5016107;28;45424;-86
2023/07/14 03:13:14;;;;;;;;;7.33;7.33;;;;;20.03;68.11;100107.28;5015917;28;45414;-86
2023/07/14 03:15:41;;;;;;;;;6.00;6.00;;;;;20.18;68.19;100123.84;5017274;28;45501;-85
2023/07/14 03:18:06;;;;;;;;;5.00;5.00;;;;;20.15;67.47;100110.63;5016993;28;45691;-86
2023/07/14 03:20:32;;;;;;;;;6.00;6.00;;;;;20.23;67.76;100112.25;5016875;28;45481;-86
2023/07/14 03:22:57;;;;;;;;;5.67;5.67;;;;;20.20;67.63;100106.13;5016837;28;45450;-86
2023/07/14 03:25:23;;;;;;;;;5.33;5.33;;;;;20.12;67.91;100102.72;5017274;28;45331;-86
2023/07/14 03:27:48;;;;;;;;;5.33;5.33;;;;;20.08;67.86;100106.34;5015824;28;45499;-86
2023/07/14 03:30:14;;;;;;;;;7.00;5.67;;;;;20.10;68.08;100101.88;5017353;28;45511;-86
2023/07/14 03:32:40;;;;;;;;;5.33;5.33;;;;;19.94;68.59;100088.88;5017241;28;45486;-85
2023/07/14 03:35:06;;;;;;;;;6.67;5.67;;;;;19.81;68.67;100089.94;5017089;28;45284;-87
2023/07/14 03:37:32;;;;;;;;;4.67;4.67;;;;;19.77;68.83;100085.59;5015427;28;48281;-85
2023/07/14 03:39:58;;;;;;;;;6.33;5.67;;;;;19.86;68.72;100088.97;5016669;28;46000;-86
2023/07/14 03:42:23;;;;;;;;;5.33;5.33;;;;;19.93;67.99;100100.34;5015360;28;45247;-86
2023/07/14 03:44:49;;;;;;;;;5.00;4.67;;;;;19.95;67.91;100100.34;5017600;28;45216;-86
2023/07/14 03:47:14;;;;;;;;;6.00;5.67;;;;;19.80;68.83;100072.31;5016731;28;45401;-86
2023/07/14 03:49:40;;;;;;;;;6.00;6.00;;;;;19.74;68.96;100067.97;5017119;28;45273;-86
2023/07/14 03:52:06;;;;;;;;;4.33;3.67;;;;;19.80;68.58;100081.13;5016776;28;45420;-86
2023/07/14 03:54:32;;;;;;;;;5.33;4.67;;;;;19.83;68.58;100077.53;5016968;28;46192;-85
2023/07/14 03:56:58;;;;;;;;;5.33;5.33;;;;;19.83;68.14;100069.59;5015095;28;46399;-85
2023/07/14 03:59:25;;;;;;;;;5.33;5.33;;;;;19.85;68.13;100076.59;5016673;28;45465;-86
2023/07/14 04:01:50;;;;;;;;;6.00;6.00;;;;;19.84;67.52;100071.34;5017094;28;45339;-85
2023/07/14 04:04:16;;;;;;;;;3.67;3.67;;;;;19.92;67.92;100079.19;5017276;28;45469;-85
2023/07/14 04:06:41;;;;;;;;;6.67;5.67;;;;;19.86;67.97;100083.69;5017140;28;46057;-86
2023/07/14 04:09:07;;;;;;;;;5.67;5.67;;;;;19.75;68.67;100079.44;5018207;28;45579;-86
2023/07/14 04:11:34;;;;;;;;;6.00;5.00;;;;;19.72;68.79;100079.50;5020527;28;45317;-86
2023/07/14 04:14:01;;;;;;;;;9.67;5.00;;;;;19.77;68.74;100078.50;5019301;28;45441;-86
2023/07/14 04:16:26;;;;;;;;;7.00;6.00;;;;;19.85;68.82;100081.03;5018781;28;46290;-85
2023/07/14 04:18:52;;;;;;;;;5.00;5.00;;;;;19.82;68.36;100062.56;5020503;28;45465;-75
2023/07/14 04:21:24;;;;;;;;;7.00;6.00;;;;;19.87;68.39;100063.34;5020716;28;45338;-86
2023/07/14 04:23:50;;;;;;;;;5.00;5.00;;;;;19.90;68.65;100063.31;5020669;28;45461;-86
2023/07/14 04:26:15;;;;;;;;;6.00;5.67;;;;;19.76;69.46;100044.09;5019943;28;45319;-82
2023/07/14 04:28:41;;;;;;;;;6.67;5.67;;;;;19.71;69.39;100049.44;5020211;28;45304;-85
2023/07/14 04:31:06;;;;;;;;;4.67;4.67;;;;;19.64;68.80;100042.47;5020314;28;45493;-86
2023/07/14 04:33:32;;;;;;;;;6.00;6.00;;;;;19.57;69.37;100041.69;5018957;28;45513;-83
2023/07/14 04:35:58;;;;;;;;;6.00;6.00;;;;;19.59;69.69;100047.81;5018407;28;46866;-83
2023/07/14 04:38:25;;;;;;;;;4.00;4.00;;;;;19.63;69.45;100043.38;5019779;28;45312;-79
2023/07/14 04:40:51;;;;;;;;;4.33;4.33;;;;;19.63;69.44;100033.63;5020202;28;45418;-80
2023/07/14 04:43:18;;;;;;;;;7.67;7.00;;;;;19.63;69.45;100017.72;5018902;28;45253;-81
2023/07/14 04:45:45;;;;;;;;;6.00;6.00;;;;;19.79;69.29;100022.84;5019684;28;46311;-81
2023/07/14 04:48:16;;;;;;;;;6.00;6.00;;;;;19.81;69.62;100024.53;5019925;28;45340;-86
2023/07/14 04:50:44;;;;;;;;;5.67;5.33;;;;;19.88;69.23;100011.22;5018614;28;45487;-85
2023/07/14 04:53:10;;;;;;;;;5.67;5.67;;;;;19.91;68.58;100004.06;5019889;28;45216;-86
2023/07/14 04:55:40;;;;;;;;;3.67;3.67;;;;;20.01;68.49;100013.59;5019475;28;45280;-86
2023/07/14 04:58:07;;;;;;;;;3.33;3.33;;;;;19.95;68.07;99997.81;5019691;28;45420;-86
2023/07/14 05:00:34;;;;;;;;;4.00;4.00;;;;;20.02;68.10;100009.22;5018388;28;45491;-85
2023/07/14 05:03:00;;;;;;;;;0.33;0.00;;;;;19.98;68.32;99987.16;5019864;28;45530;-85
2023/07/14 05:05:26;;;;;;;;;3.67;3.67;;;;;20.11;68.02;100005.50;5017665;28;46297;-84
2023/07/14 05:07:52;;;;;;;;;5.00;5.00;;;;;20.19;67.84;100015.09;5018548;28;45577;-86
2023/07/14 05:10:19;;;;;;;;;5.67;5.67;;;;;20.24;67.60;100004.38;5018413;28;45325;-86
2023/07/14 05:12:49;;;;;;;;;4.67;4.33;;;;;20.19;67.11;99988.56;5019875;28;45423;-85
2023/07/14 05:15:15;;;;;;;;;6.67;5.67;;;;;20.19;67.05;99990.31;5019198;28;45435;-86
2023/07/14 05:17:44;;;;;;;;;5.00;4.67;;;;;20.20;66.93;99992.97;5019334;28;45509;-85
2023/07/14 05:20:12;;;;;;;;;6.33;6.33;;;;;20.25;66.97;99990.22;5028237;28;45455;-86
2023/07/14 05:22:41;;;;;;;;;8.67;7.33;;;;;20.26;67.34;99991.97;5019147;28;45150;-74
2023/07/14 05:25:07;;;;;;;;;6.00;6.00;;;;;20.34;66.91;99987.41;5019047;28;45512;-83
2023/07/14 05:27:33;;;;;;;;;5.67;5.33;;;;;20.32;66.86;99975.94;5017583;28;45451;-85
2023/07/14 05:29:59;;;;;;;;;6.00;5.00;;;;;20.37;66.77;99976.75;5034235;28;45340;-83
2023/07/14 05:32:25;;;;;;;;;4.33;4.33;;;;;20.42;66.60;99981.94;5018253;28;45364;-86
2023/07/14 05:34:51;;;;;;;;;5.00;5.00;;;;;20.51;66.49;99984.41;5017322;28;46308;-84
2023/07/14 05:37:18;;;;;;;;;6.00;5.67;;;;;20.45;66.68;99960.66;5019050;28;45538;-84
2023/07/14 05:39:44;;;;;;;;;4.67;4.00;;;;;20.63;66.73;99980.66;5034220;28;45506;-85
2023/07/14 05:42:10;;;;;;;;;4.33;4.33;;;;;20.72;66.18;99984.94;5034242;28;45321;-86
2023/07/14 05:44:37;;;;;;;;;6.00;5.00;;;;;20.80;66.06;99980.31;5018391;28;45533;-73
2023/07/14 05:47:03;;;;;;;;;4.00;3.67;;;;;20.80;66.76;99978.53;5033639;28;45482;-85
2023/07/14 05:49:29;;;;;;;;;9.00;6.00;;;;;20.86;66.35;99977.53;5018630;28;45534;-76
2023/07/14 05:51:55;;;;;;;;;5.33;5.33;;;;;20.83;66.38;99970.53;5017731;28;45563;-86
2023/07/14 05:54:21;;;;;;;;;5.33;4.67;;;;;20.80;66.64;99978.53;5018502;28;45951;-86
2023/07/14 05:56:47;;;;;;;;;4.00;4.00;;;;;20.82;66.87;99973.22;5016830;28;45553;-84
2023/07/14 05:59:13;;;;;;;;;5.00;4.67;;;;;20.86;66.41;99970.44;5018493;28;45308;-85
2023/07/14 06:01:39;;;;;;;;;5.00;5.00;;;;;20.97;66.51;99969.31;5019549;28;45176;-84
2023/07/14 06:04:05;;;;;;;;;5.00;5.00;;;;;21.13;66.41;99951.28;5016399;28;45426;-85
2023/07/14 06:06:32;;;;;;;;;6.67;6.67;;;;;21.24;65.64;99950.13;5015521;28;45408;-84
2023/07/14 06:08:58;;;;;;;;;4.00;4.00;;;;;21.46;65.71;99954.94;5017593;28;45403;-76
2023/07/14 06:11:24;;;;;;;;;6.00;5.67;;;;;23.99;59.14;99935.16;5008522;28;45491;-85
2023/07/14 06:13:49;;;;;;;;;8.00;7.67;;;;;27.25;54.53;99940.41;5016952;28;45605;-85
2023/07/14 06:16:15;;;;;;;;;6.67;6.67;;;;;29.65;48.18;99918.66;5017286;28;45732;-85
2023/07/14 06:18:41;;;;;;;;;5.00;5.00;;;;;31.44;43.63;99930.81;5015602;28;45639;-85
2023/07/14 06:21:08;;;;;;;;;5.00;4.67;;;;;33.01;40.69;99925.34;5017410;28;45461;-84
2023/07/14 06:23:34;;;;;;;;;4.33;4.00;;;;;34.21;38.71;99923.56;5017081;28;45453;-82
2023/07/14 06:26:00;;;;;;;;;4.00;4.00;;;;;35.35;37.13;99926.09;5017024;28;45601;-81
2023/07/14 06:28:26;;;;;;;;;9.00;8.00;;;;;36.19;35.46;99925.34;5017407;28;45470;-85
2023/07/14 06:31:01;;;;;;;;;5.33;4.00;;;;;37.16;33.22;99927.66;5014360;28;45482;-85
2023/07/14 06:33:26;;;;;;;;;3.00;2.33;;;;;38.04;31.38;99931.25;5016565;28;46130;-79
2023/07/14 06:35:55;;;;;;;;;3.00;3.00;;;;;38.95;31.77;99930.69;5016373;28;45381;-83
2023/07/14 06:38:22;;;;;;;;;2.00;2.00;;;;;39.64;31.44;99918.31;5017236;28;45509;-82
2023/07/14 06:40:54;;;;;;;;;2.33;2.33;;;;;40.12;29.62;99922.47;5023885;28;45541;-82
2023/07/14 06:43:20;;;;;;;;;3.00;2.00;;;;;40.94;27.82;99933.91;5016255;28;46071;-81
2023/07/14 06:45:49;;;;;;;;;3.00;2.67;;;;;41.45;27.80;99924.81;5016262;28;45363;-83
2023/07/14 06:48:15;;;;;;;;;2.67;2.67;;;;;42.12;27.33;99919.19;5014993;28;45432;-83
2023/07/14 06:50:41;;;;;;;;;3.67;3.67;;;;;42.59;26.03;99914.81;5016931;28;45291;-83
2023/07/14 06:53:08;;;;;;;;;3.67;3.67;;;;;43.18;26.10;99917.13;5016410;28;45494;-83
2023/07/14 06:55:37;;;;;;;;;4.67;4.00;;;;;43.65;25.24;99911.44;5013928;28;45403;-82
2023/07/14 06:58:03;;;;;;;;;3.33;3.33;;;;;44.18;24.44;99918.94;5016606;28;45499;-82
2023/07/14 07:00:31;;;;;;;;;4.00;3.00;;;;;44.65;24.12;99914.97;5016948;28;45524;-82
2023/07/14 07:02:57;;;;;;;;;3.00;2.00;;;;;45.08;25.10;99915.09;5017144;28;45835;-82
2023/07/14 07:05:22;;;;;;;;;4.00;4.00;;;;;45.26;23.51;99910.03;5017047;28;45339;-82
2023/07/14 07:07:48;;;;;;;;;3.00;3.00;;;;;45.62;23.04;99905.47;5017820;28;45472;-82
2023/07/14 07:10:13;;;;;;;;;2.33;2.33;;;;;45.92;22.82;99905.34;5015589;28;45645;-81
2023/07/14 07:12:40;;;;;;;;;3.33;3.33;;;;;46.57;22.06;99908.78;5028910;28;45578;-87
2023/07/14 07:15:09;;;;;;;;;4.33;3.67;;;;;46.73;22.83;99911.19;5020914;28;45559;-86
2023/07/14 07:17:38;;;;;;;;;3.00;3.00;;;;;46.91;22.15;99910.66;5012784;28;45432;-83
2023/07/14 07:20:08;;;;;;;;;5.00;5.00;;;;;47.30;22.66;99903.56;5016862;28;45332;-84
2023/07/14 07:22:35;;;;;;;;;3.00;3.00;;;;;47.85;20.73;99900.63;5016348;28;45535;-83
2023/07/14 07:25:00;;;;;;;;;2.33;2.33;;;;;48.44;21.44;99909.13;5023862;28;45471;-83
2023/07/14 07:27:26;;;;;;;;;3.00;2.67;;;;;48.70;20.67;99911.81;5016726;28;46159;-77
2023/07/14 07:29:51;;;;;;;;;4.33;3.33;;;;;48.99;20.57;99906.78;5017143;28;45490;-79
2023/07/14 07:32:17;;;;;;;;;2.67;2.67;;;;;49.26;19.98;99906.63;5016771;28;46060;-74
2023/07/14 07:34:43;;;;;;;;;5.33;5.33;;;;;49.56;21.16;99907.69;5016568;28;45472;-83
2023/07/14 07:37:12;;;;;;;;;4.33;3.67;;;;;50.00;19.31;99893.03;5012058;28;45443;-85
2023/07/14 07:39:38;;;;;;;;;0.00;0.00;;;;;50.50;19.19;99906.88;5013816;28;45439;-76
2023/07/14 07:42:04;;;;;;;;;5.00;4.67;;;;;50.53;19.57;99879.47;5014826;28;46930;-78
2023/07/14 07:44:31;;;;;;;;;4.33;3.67;;;;;50.90;17.69;99896.13;5019452;28;45722;-83
2023/07/14 07:46:56;;;;;;;;;5.33;5.33;;;;;51.33;17.73;99897.84;5020251;28;45391;-78
2023/07/14 07:49:22;;;;;;;;;10.67;10.67;;;;;51.41;18.15;99893.03;5020423;28;45237;-76
2023/07/14 07:51:48;;;;;;;;;5.00;5.00;;;;;51.67;16.55;99888.97;5020046;28;46418;-79
2023/07/14 07:54:14;;;;;;;;;4.67;4.00;;;;;51.95;16.82;99881.88;5019795;28;45590;-83
2023/07/14 07:56:42;;;;;;;;;7.00;6.00;;;;;52.36;16.35;99880.88;5020586;28;45485;-78
2023/07/14 07:59:09;;;;;;;;;6.00;6.00;;;;;52.56;16.09;99882.44;5020485;28;45340;-83
2023/07/14 08:01:35;;;;;;;;;4.00;4.00;;;;;52.66;16.99;99888.22;5019128;28;47264;-82
2023/07/14 08:04:01;;;;;;;;;3.67;3.67;;;;;53.12;16.14;99888.28;5021051;28;45707;-84
2023/07/14 08:06:28;;;;;;;;;4.33;3.33;;;;;53.14;17.16;99892.50;5018771;28;45521;-74
2023/07/14 08:08:54;;;;;;;;;4.00;4.00;;;;;53.11;15.74;99881.88;5020569;28;45456;-78
2023/07/14 08:11:19;;;;;;;;;3.33;3.33;;;;;53.58;15.34;99886.34;5018686;28;46341;-84
2023/07/14 08:13:45;;;;;;;;;4.67;4.00;;;;;53.73;15.05;99886.59;5018685;28;45474;-85
2023/07/14 08:16:12;;;;;;;;;3.33;3.33;;;;;53.53;14.91;99883.50;5020031;28;45350;-85
2023/07/14 08:18:38;;;;;;;;;3.33;2.67;;;;;53.38;15.83;99882.06;5020479;28;45296;-84
2023/07/14 08:21:03;;;;;;;;;2.67;2.67;;;;;53.80;16.51;99878.88;5018709;28;46350;-84
2023/07/14 08:23:29;;;;;;;;;8.00;8.00;;;;;53.89;15.19;99876.53;5020347;28;45473;-85
2023/07/14 08:25:58;;;;;;;;;4.67;4.00;;;;;53.90;16.91;99886.59;5019886;28;45225;-84
2023/07/14 08:28:28;;;;;;;;;5.00;4.67;;;;;54.51;14.08;99878.25;5020654;28;45546;-84
2023/07/14 08:30:55;;;;;;;;;4.00;3.00;;;;;54.36;15.18;99870.50;5020810;28;46159;-83
2023/07/14 08:33:23;;;;;;;;;4.67;4.67;;;;;54.30;15.62;99865.09;5020950;28;45301;-84
2023/07/14 08:35:49;;;;;;;;;4.00;4.00;;;;;54.29;16.27;99866.22;5018631;28;45602;-83
2023/07/14 08:38:15;;;;;;;;;3.00;3.00;;;;;54.43;15.03;99861.91;5020600;28;45383;-84
2023/07/14 08:40:52;;;;;;;;;5.00;5.00;;;;;54.45;14.96;99857.75;5020570;28;45339;-83
2023/07/14 08:43:30;;;;;;;;;5.67;5.67;;;;;54.34;14.89;99864.31;5019680;28;45237;-85
2023/07/14 08:46:03;;;;;;;;;4.67;3.33;;;;;54.28;14.64;99856.13;5019986;28;45482;-85
2023/07/14 08:48:38;;;;;;;;;4.00;4.00;;;;;54.21;15.71;99854.38;5023455;28;45463;-86
2023/07/14 08:51:38;;;;;;;;;6.67;6.00;;;;;54.70;15.27;99864.78;5023149;28;45415;-84
2023/07/14 08:54:13;;;;;;;;;4.50;4.00;;;;;54.89;14.79;99862.47;5017934;28;45457;-84
2023/07/14 08:56:41;;;;;;;;;4.00;3.67;;;;;54.55;15.16;99859.84;5033438;28;45209;-84
2023/07/14 08:59:17;;;;;;;;;4.67;4.67;;;;;54.13;15.11;99862.34;5021790;28;45464;-84
2023/07/14 09:01:56;;;;;;;;;5.67;5.67;;;;;54.39;15.26;99855.16;5019249;28;45504;-86
2023/07/14 09:04:24;;;;;;;;;4.33;4.33;;;;;54.34;14.80;99852.28;5019525;28;45512;-85
2023/07/14 09:06:50;;;;;;;;;6.00;5.00;;;;;54.03;15.21;99846.28;5018992;28;45354;-83
2023/07/14 09:09:40;;;;;;;;;3.00;3.00;;;;;53.77;15.88;99853.41;5019604;28;45322;-84
2023/07/14 09:12:19;;;;;;;;;5.33;5.00;;;;;53.88;15.09;99844.09;5018766;28;45625;-85
2023/07/14 09:15:16;;;;;;;;;7.00;5.00;;;;;53.80;15.69;99845.34;5018820;28;45420;-85
2023/07/14 09:18:04;;;;;;;;;7.00;6.00;;;;;53.87;15.32;99849.97;5018525;28;45522;-85
2023/07/14 09:21:13;;;;;;;;;5.00;5.00;;;;;53.75;15.97;99848.09;5019360;28;45525;-83
2023/07/14 09:23:59;;;;;;;;;7.00;7.00;;;;;53.44;15.32;99844.75;5019088;28;45456;-76
2023/07/14 09:27:01;;;;;;;;;6.00;5.67;;;;;53.58;14.83;99838.88;5018583;28;45439;-86
2023/07/14 09:29:34;;;;;;;;;6.00;6.00;;;;;53.42;16.29;99833.00;4961239;28;45619;-85
2023/07/14 09:32:35;;;;;;;;;5.50;5.50;;;;;53.70;14.78;99827.59;5012324;28;45214;-84
2023/07/14 09:35:17;;;;;;;;;6.33;5.33;;;;;53.55;15.23;99834.66;5006366;28;46196;-85
2023/07/14 09:37:53;;;;;;;;;7.00;7.00;;;;;52.93;15.93;99832.72;5018177;28;45521;-85
2023/07/14 09:40:25;;;;;;;;;6.00;6.00;;;;;53.00;16.29;99821.38;5019134;28;45382;-85
2023/07/14 09:42:56;;;;;;;;;8.00;7.00;;;;;53.08;15.92;99827.38;5019204;28;45446;-85
2023/07/14 09:45:23;;;;;;;;;8.33;8.00;;;;;52.96;16.43;99826.63;5018712;28;45457;-84
2023/07/14 09:48:15;;;;;;;;;6.33;6.33;;;;;52.91;16.72;99831.25;5018364;28;45332;-83
2023/07/14 09:51:06;;;;;;;;;9.33;8.33;;;;;52.63;16.44;99833.81;5018079;28;45240;-80
2023/07/14 09:53:33;;;;;;;;;7.00;7.00;;;;;52.45;16.68;99831.16;5017615;28;45850;-83
2023/07/14 09:56:04;;;;;;;;;9.00;9.00;;;;;52.25;16.72;99840.81;5016649;28;45651;-83
2023/07/14 09:58:32;;;;;;;;;8.67;8.00;;;;;52.46;16.43;99827.28;5021541;28;45467;-85
2023/07/14 10:00:59;;;;;;;;;6.67;6.67;;;;;52.21;17.04;99830.38;5019914;28;45361;-85
2023/07/14 10:03:32;;;;;;;;;7.33;7.33;;;;;51.89;17.25;99819.63;5019119;28;45503;-83
2023/07/14 10:06:10;;;;;;;;;6.00;6.00;;;;;51.76;17.60;99814.31;5022243;28;45329;-84
2023/07/14 10:08:49;;;;;;;;;6.67;6.67;;;;;51.76;18.05;99826.28;5020126;28;45413;-85
2023/07/14 10:11:14;;;;;;;;;8.00;8.00;;;;;51.80;17.19;99798.81;5016189;28;45547;-84
2023/07/14 10:13:48;;;;;;;;;6.33;6.33;;;;;51.87;17.49;99813.47;5018031;28;45399;-85
2023/07/14 10:16:16;;;;;;;;;8.67;8.00;;;;;51.44;17.88;99797.94;5016061;28;45526;-85
2023/07/14 10:18:55;;;;;;;;;8.00;7.00;;;;;51.53;18.00;99815.97;5017752;28;45863;-81
2023/07/14 10:21:27;;;;;;;;;7.00;7.00;;;;;51.28;18.07;99802.28;5017864;28;45513;-83
2023/07/14 10:24:01;;;;;;;;;7.67;7.67;;;;;51.40;18.62;99811.47;5016639;28;45654;-84
2023/07/14 10:26:29;;;;;;;;;8.00;7.67;;;;;51.55;18.41;99805.44;5017313;28;45320;-84
2023/07/14 10:28:56;;;;;;;;;10.67;9.67;;;;;51.80;17.63;99799.63;5017650;28;45323;-84
2023/07/14 10:31:44;;;;;;;;;9.67;9.67;;;;;51.48;17.77;99799.19;5016050;28;45379;-85
2023/07/14 10:34:21;;;;;;;;;10.33;9.67;;;;;51.06;18.34;99794.47;5018071;28;45357;-84
2023/07/14 10:36:50;;;;;;;;;11.67;11.00;;;;;51.07;18.10;99789.75;5016664;28;45530;-84
2023/07/14 10:39:43;;;;;;;;;9.00;9.00;;;;;50.39;17.92;99794.53;5017272;28;45522;-84
2023/07/14 10:42:20;;;;;;;;;8.67;8.67;;;;;49.40;19.27;99794.50;5011062;28;45395;-84
2023/07/14 10:44:46;;;;;;;;;9.00;9.00;;;;;49.18;19.05;99783.75;5016914;28;45366;-83
2023/07/14 10:47:17;;;;;;;;;10.67;10.00;;;;;48.92;19.71;99786.72;5017741;28;45421;-83
2023/07/14 10:49:59;;;;;;;;;13.33;11.67;;;;;48.91;19.25;99771.16;5016712;28;45321;-82
2023/07/14 10:52:37;;;;;;;;;10.33;10.33;;;;;48.27;20.11;99776.59;5016259;28;45491;-85
2023/07/14 10:55:05;;;;;;;;;9.00;9.00;;;;;48.20;19.74;99779.38;5018355;28;45353;-83
2023/07/14 10:58:01;;;;;;;;;9.00;9.00;;;;;48.09;20.38;99776.44;5017697;28;45525;-84
2023/07/14 11:00:32;;;;;;;;;10.33;9.67;;;;;47.66;20.46;99775.06;5023867;28;45518;-83
2023/07/14 11:03:32;;;;;;;;;9.00;9.00;;;;;47.82;20.42;99772.91;5019095;28;45463;-84
2023/07/14 11:06:15;;;;;;;;;9.33;9.33;;;;;47.44;21.34;99768.00;5017287;28;45245;-84
2023/07/14 11:08:41;;;;;;;;;9.00;9.00;;;;;47.28;21.00;99761.88;5016017;28;47121;-83
2023/07/14 11:11:19;;;;;;;;;11.00;11.00;;;;;46.97;21.92;99760.53;5016744;28;45332;-78
2023/07/14 11:14:13;;;;;;;;;9.33;9.33;;;;;46.91;22.41;99761.38;5017306;28;45268;-78
2023/07/14 11:17:05;;;;;;;;;9.33;9.33;;;;;46.42;22.47;99751.47;5017183;28;45338;-74
2023/07/14 11:19:59;;;;;;;;;10.00;10.00;;;;;45.55;23.24;99748.19;5019659;28;47321;-81
2023/07/14 11:22:31;;;;;;;;;10.00;9.00;;;;;45.35;23.54;99738.94;5018600;28;45460;-81
2023/07/14 11:25:18;;;;;;;;;12.00;11.33;;;;;44.79;23.91;99736.88;5019090;28;45205;-80
2023/07/14 11:27:56;;;;;;;;;10.00;10.00;;;;;43.74;24.52;99729.88;5019074;28;45531;-81
2023/07/14 11:30:34;;;;;;;;;10.00;10.00;;;;;42.89;26.44;99726.34;5016487;28;46148;-79
2023/07/14 11:33:41;;;;;;;;;12.67;12.00;;;;;42.72;25.61;99717.34;5016401;28;45276;-82
2023/07/14 11:36:21;;;;;;;;;10.67;10.67;;;;;42.24;26.28;99708.34;4938799;28;45320;-81
2023/07/14 11:39:15;;;;;;;;;13.00;13.00;;;;;41.72;26.68;99707.00;5010362;28;45812;-76
2023/07/14 11:41:42;;;;;;;;;10.00;10.00;;;;;41.36;27.62;99699.19;5010819;28;46633;-78
2023/07/14 11:44:13;;;;;;;;;11.33;10.33;;;;;41.34;27.17;99695.75;5016598;28;45347;-82
2023/07/14 11:46:40;;;;;;;;;12.00;11.67;;;;;41.01;28.43;99686.69;5016722;28;45475;-83